KGLS/GLS METAR and TAF weather

Enter ICAO airport designator
Station Type Date Time Source
KGLS METAR 2020/06/01 14:52 UTC NOAA

KGLS 011452Z 04010KT 10SM FEW120 28/22 A3010 RMK AO2 SLP193 60000 T02830222 51011


Station Type Date Time Source
KGLS Decoded METAR 2020/06/01 14:52 UTC NOAA

SCHOLES FIELD, TX, United States (KGLS) 29-16N 094-52W 6M
Jun 01, 2020 - 10:52 AM EDT / 2020.06.01 1452 UTC
Wind: from the NE (040 degrees) at 12 MPH (10 KT):0
Visibility: 10 mile(s):0
Sky conditions: mostly clear
Temperature: 82.9 F (28.3 C)
Dew Point: 72.0 F (22.2 C)
Relative Humidity: 69%
Pressure (altimeter): 30.1 in. Hg (1019 hPa)
Pressure tendency: 0.03 inches (1.1 hPa) higher than three hours ago
ob: KGLS 011452Z 04010KT 10SM FEW120 28/22 A3010 RMK AO2 SLP193 60000 T02830222 51011
cycle: 15

Station Type Date Time Source
KGLS TAF 2020/06/01 12:26 UTC NOAA

TAF KGLS 011120Z 0112/0212 04008KT P6SM VCSH FEW080 BKN090
FM011900 09009KT P6SM SCT040 BKN080 BKN120
FM020000 11009KT P6SM FEW050 SCT080 BKN120
FM020600 10007KT P6SM SCT030 BKN120

Example: see airport list